Time;durP1;ratioP1;P1;durP2;ratioP2;P2;SDS_P1;SDS_P2;PMS_P1;PMS_P2;Temp;Humidity;BMP_temperature;BMP_pressure;BME280_temperature;BME280_humidity;BME280_pressure;Samples;Min_cycle;Max_cycle;Signal;HPM_P1;HPM_P2
2022/05/17 00:00:51;;;;;;;;;;;;;;;;;;4995977;28;19921;-66
2022/05/17 00:03:17;;;;;;;;;;;;;;;;;;4995964;28;19937;-66
2022/05/17 00:05:44;;;;;;;;;;;;;;;;;;4995967;28;19928;-67
2022/05/17 00:08:11;;;;;;;;;;;;;;;;;;4995902;28;19922;-67
2022/05/17 00:10:38;;;;;;;;;;;;;;;;;;4996200;28;20335;-66
2022/05/17 00:13:05;;;;;;;;;;;;;;;;;;4995993;28;20382;-66
2022/05/17 00:15:32;;;;;;;;;;;;;;;;;;4995762;28;19929;-65
2022/05/17 00:18:00;;;;;;;;;;;;;;;;;;4996022;28;19928;-66
2022/05/17 00:20:27;;;;;;;;;;;;;;;;;;4995503;28;19921;-66
2022/05/17 00:22:54;;;;;;;;;;;;;;;;;;4995741;28;19921;-67
2022/05/17 00:25:23;;;;;;;;;;;;;;;;;;4995456;28;19922;-66
2022/05/17 00:27:49;;;;;;;;;;;;;;;;;;4995687;28;19922;-66
2022/05/17 00:30:16;;;;;;;;;;;;;;;;;;4995396;28;19921;-67
2022/05/17 00:32:42;;;;;;;;;;;;;;;;;;4995532;28;19921;-65
2022/05/17 00:35:10;;;;;;;;;;;;;;;;;;4995581;28;19921;-66
2022/05/17 00:37:37;;;;;;;;;;;;;;;;;;4994646;28;19929;-66
2022/05/17 00:40:05;;;;;;;;;;;;;;;;;;4995342;28;20117;-67
2022/05/17 00:42:35;;;;;;;;;;;;;;;;;;4995485;28;19921;-66
2022/05/17 00:45:02;;;;;;;;;;;;;;;;;;4995648;28;19928;-63
2022/05/17 00:47:30;;;;;;;;;;;;;;;;;;4995452;28;20299;-64
2022/05/17 00:49:59;;;;;;;;;;;;;;;;;;4995319;28;20319;-65
2022/05/17 00:52:29;;;;;;;;;;;;;;;;;;4995107;28;19926;-66
2022/05/17 00:54:57;;;;;;;;;;;;;;;;;;4994490;28;20310;-66
2022/05/17 00:57:29;;;;;;;;;;;;;;;;;;4994831;28;20311;-66
2022/05/17 00:59:57;;;;;;;;;;;;;;;;;;4995139;28;19921;-66
2022/05/17 01:02:25;;;;;;;;;;;;;;;;;;4994858;28;20430;-65
2022/05/17 01:04:52;;;;;;;;;;;;;;;;;;4994674;28;19922;-66
2022/05/17 01:07:20;;;;;;;;;;;;;;;;;;4995060;28;19929;-67
2022/05/17 01:09:49;;;;;;;;;;;;;;;;;;4994959;28;20378;-67
2022/05/17 01:12:15;;;;;;;;;;;;;;;;;;4994699;28;19930;-67
2022/05/17 01:15:00;;;;;;;;;;;;;;;;;;4995390;28;19943;-65
2022/05/17 01:17:27;;;;;;;;;;;;;;;;;;4994546;28;19922;-66
2022/05/17 01:19:54;;;;;;;;;;;;;;;;;;4994628;28;20306;-66
2022/05/17 01:22:23;;;;;;;;;;;;;;;;;;4994831;28;19929;-66
2022/05/17 01:24:49;;;;;;;;;;;;;;;;;;4994577;28;19929;-65
2022/05/17 01:27:24;;;;;;;;;;;;;;;;;;4994670;28;19932;-66
2022/05/17 01:29:52;;;;;;;;;;;;;;;;;;4994553;28;20334;-66
2022/05/17 01:32:19;;;;;;;;;;;;;;;;;;4994639;28;19925;-66
2022/05/17 01:34:45;;;;;;;;;;;;;;;;;;4994225;28;19929;-65
2022/05/17 01:37:13;;;;;;;;;;;;;;;;;;4994362;28;19922;-66
2022/05/17 01:39:41;;;;;;;;;;;;;;;;;;4994485;28;19929;-65
2022/05/17 01:42:10;;;;;;;;;;;;;;;;;;4994083;28;19975;-66
2022/05/17 01:44:37;;;;;;;;;;;;;;;;;;4994238;28;19928;-65
2022/05/17 01:47:04;;;;;;;;;;;;;;;;;;5005417;28;19930;-69
2022/05/17 01:49:31;;;;;;;;;;;;;;;;;;5012826;28;19927;-66
2022/05/17 01:51:58;;;;;;;;;;;;;;;;;;5013681;28;20267;-67
2022/05/17 01:54:24;;;;;;;;;;;;;;;;;;5013945;28;19921;-64
2022/05/17 01:56:52;;;;;;;;;;;;;;;;;;5013873;28;20379;-67
2022/05/17 01:59:19;;;;;;;;;;;;;;;;;;5013729;28;19968;-67
2022/05/17 02:01:46;;;;;;;;;;;;;;;;;;5013361;28;19928;-64
2022/05/17 02:04:13;;;;;;;;;;;;;;;;;;5005783;28;19928;-66
2022/05/17 02:06:40;;;;;;;;;;;;;;;;;;4993763;28;19980;-66
2022/05/17 02:09:07;;;;;;;;;;;;;;;;;;4994025;28;19925;-65
2022/05/17 02:11:33;;;;;;;;;;;;;;;;;;4993660;28;20394;-67
2022/05/17 02:14:02;;;;;;;;;;;;;;;;;;4993906;28;19921;-65
2022/05/17 02:16:29;;;;;;;;;;;;;;;;;;4993544;28;19928;-65
2022/05/17 02:18:56;;;;;;;;;;;;;;;;;;4993718;28;19921;-65
2022/05/17 02:21:23;;;;;;;;;;;;;;;;;;4993893;28;19928;-66
2022/05/17 02:23:50;;;;;;;;;;;;;;;;;;4993889;28;19929;-66
2022/05/17 02:26:16;;;;;;;;;;;;;;;;;;4993553;28;19979;-66
2022/05/17 02:28:43;;;;;;;;;;;;;;;;;;4993687;28;19929;-66
2022/05/17 02:31:13;;;;;;;;;;;;;;;;;;4993655;28;19921;-67
2022/05/17 02:33:40;;;;;;;;;;;;;;;;;;4993449;28;19976;-65
2022/05/17 02:36:06;;;;;;;;;;;;;;;;;;4993046;28;20275;-66
2022/05/17 02:38:33;;;;;;;;;;;;;;;;;;4993525;28;19922;-65
2022/05/17 02:41:00;;;;;;;;;;;;;;;;;;4992972;28;20006;-67
2022/05/17 02:43:30;;;;;;;;;;;;;;;;;;4993044;28;19925;-66
2022/05/17 02:45:56;;;;;;;;;;;;;;;;;;4992910;28;19975;-66
2022/05/17 02:48:25;;;;;;;;;;;;;;;;;;4993287;28;19922;-66
2022/05/17 02:50:52;;;;;;;;;;;;;;;;;;4993033;28;19929;-65
2022/05/17 02:53:19;;;;;;;;;;;;;;;;;;4993066;28;19996;-66
2022/05/17 02:55:46;;;;;;;;;;;;;;;;;;4993583;28;19928;-66
2022/05/17 02:58:13;;;;;;;;;;;;;;;;;;4993109;28;19936;-65
2022/05/17 03:00:39;;;;;;;;;;;;;;;;;;4992542;28;19921;-66
2022/05/17 03:03:07;;;;;;;;;;;;;;;;;;4993233;28;19948;-65
2022/05/17 03:05:35;;;;;;;;;;;;;;;;;;4992833;28;19953;-66
2022/05/17 03:08:02;;;;;;;;;;;;;;;;;;4993065;28;19944;-67
2022/05/17 03:10:29;;;;;;;;;;;;;;;;;;4992876;28;19921;-66
2022/05/17 03:12:56;;;;;;;;;;;;;;;;;;4993405;28;20363;-66
2022/05/17 03:15:23;;;;;;;;;;;;;;;;;;4992523;28;20267;-66
2022/05/17 03:17:51;;;;;;;;;;;;;;;;;;4992840;28;19928;-66
2022/05/17 03:20:18;;;;;;;;;;;;;;;;;;4992905;28;19976;-66
2022/05/17 03:22:46;;;;;;;;;;;;;;;;;;4993113;28;19922;-66
2022/05/17 03:25:12;;;;;;;;;;;;;;;;;;4992806;28;20298;-66
2022/05/17 03:27:39;;;;;;;;;;;;;;;;;;4992962;28;20375;-66
2022/05/17 03:30:07;;;;;;;;;;;;;;;;;;4992845;28;20415;-66
2022/05/17 03:32:33;;;;;;;;;;;;;;;;;;4992607;28;19929;-66
2022/05/17 03:35:00;;;;;;;;;;;;;;;;;;4992778;28;20401;-66
2022/05/17 03:37:27;;;;;;;;;;;;;;;;;;4992717;28;19941;-66
2022/05/17 03:39:55;;;;;;;;;;;;;;;;;;4992645;28;19945;-65
2022/05/17 03:42:22;;;;;;;;;;;;;;;;;;4992744;28;19922;-66
2022/05/17 03:44:49;;;;;;;;;;;;;;;;;;4992483;28;19922;-66
2022/05/17 03:47:16;;;;;;;;;;;;;;;;;;4997844;28;19929;-66
2022/05/17 03:49:43;;;;;;;;;;;;;;;;;;4992378;28;19926;-65
2022/05/17 03:52:10;;;;;;;;;;;;;;;;;;4992408;28;19921;-64
2022/05/17 03:54:37;;;;;;;;;;;;;;;;;;4992078;28;20360;-66
2022/05/17 03:57:06;;;;;;;;;;;;;;;;;;4992550;28;19937;-67
2022/05/17 03:59:33;;;;;;;;;;;;;;;;;;4992622;28;19921;-67
2022/05/17 04:02:00;;;;;;;;;;;;;;;;;;4992471;28;19921;-67
2022/05/17 04:04:26;;;;;;;;;;;;;;;;;;4992587;28;19922;-65
2022/05/17 04:06:53;;;;;;;;;;;;;;;;;;4992218;28;19944;-66
2022/05/17 04:09:20;;;;;;;;;;;;;;;;;;4992748;28;19922;-67
2022/05/17 04:11:46;;;;;;;;;;;;;;;;;;4992511;28;20403;-66
2022/05/17 04:14:15;;;;;;;;;;;;;;;;;;4995946;28;20346;-66
2022/05/17 04:16:42;;;;;;;;;;;;;;;;;;4995634;28;19929;-65
2022/05/17 04:19:09;;;;;;;;;;;;;;;;;;4996020;28;19926;-67
2022/05/17 04:21:36;;;;;;;;;;;;;;;;;;4995712;28;19925;-67
2022/05/17 04:24:02;;;;;;;;;;;;;;;;;;4995680;28;19928;-66
2022/05/17 04:26:29;;;;;;;;;;;;;;;;;;4995583;28;19928;-66
2022/05/17 04:28:56;;;;;;;;;;;;;;;;;;4996038;28;20012;-65
2022/05/17 04:31:24;;;;;;;;;;;;;;;;;;4995831;28;20279;-68
2022/05/17 04:33:51;;;;;;;;;;;;;;;;;;4995725;28;19937;-67
2022/05/17 04:36:18;;;;;;;;;;;;;;;;;;4995542;28;19921;-66
2022/05/17 04:38:45;;;;;;;;;;;;;;;;;;4995570;28;19964;-66
2022/05/17 04:41:11;;;;;;;;;;;;;;;;;;4995504;28;19968;-66
2022/05/17 04:43:39;;;;;;;;;;;;;;;;;;4995762;28;19965;-65
2022/05/17 04:46:06;;;;;;;;;;;;;;;;;;4998492;28;20375;-66
2022/05/17 04:48:34;;;;;;;;;;;;;;;;;;5015340;28;19960;-65
2022/05/17 04:51:00;;;;;;;;;;;;;;;;;;5015206;28;19921;-65
2022/05/17 04:53:28;;;;;;;;;;;;;;;;;;5015519;28;20302;-65
2022/05/17 04:55:54;;;;;;;;;;;;;;;;;;5001098;28;19921;-67
2022/05/17 04:58:21;;;;;;;;;;;;;;;;;;4995115;28;20390;-66
2022/05/17 05:00:48;;;;;;;;;;;;;;;;;;4995377;28;20089;-66
2022/05/17 05:03:15;;;;;;;;;;;;;;;;;;4994533;28;20346;-66
2022/05/17 05:05:43;;;;;;;;;;;;;;;;;;4994751;28;19968;-66
2022/05/17 05:08:10;;;;;;;;;;;;;;;;;;4994654;28;19968;-66
2022/05/17 05:10:37;;;;;;;;;;;;;;;;;;4994844;28;19965;-66
2022/05/17 05:13:04;;;;;;;;;;;;;;;;;;4994564;28;19928;-65
2022/05/17 05:15:31;;;;;;;;;;;;;;;;;;4994373;28;19929;-66
2022/05/17 05:17:58;;;;;;;;;;;;;;;;;;4995022;28;20291;-67
2022/05/17 05:20:25;;;;;;;;;;;;;;;;;;4994908;28;19922;-66
2022/05/17 05:22:53;;;;;;;;;;;;;;;;;;4995174;28;19921;-66
2022/05/17 05:25:20;;;;;;;;;;;;;;;;;;4994405;28;19921;-66
2022/05/17 05:27:46;;;;;;;;;;;;;;;;;;4994859;28;19928;-66
2022/05/17 05:30:14;;;;;;;;;;;;;;;;;;4994329;28;19921;-66
2022/05/17 05:32:41;;;;;;;;;;;;;;;;;;4994542;28;19926;-66
2022/05/17 05:35:08;;;;;;;;;;;;;;;;;;4994094;28;19921;-66
2022/05/17 05:37:34;;;;;;;;;;;;;;;;;;4994264;28;19921;-65
2022/05/17 05:40:03;;;;;;;;;;;;;;;;;;4994216;28;19928;-67
2022/05/17 05:42:29;;;;;;;;;;;;;;;;;;4994450;28;19972;-67
2022/05/17 05:44:56;;;;;;;;;;;;;;;;;;4994052;28;19922;-66
2022/05/17 05:47:23;;;;;;;;;;;;;;;;;;5007929;28;20294;-67
2022/05/17 05:49:49;;;;;;;;;;;;;;;;;;5013933;28;19929;-67
2022/05/17 05:52:16;;;;;;;;;;;;;;;;;;5013771;28;19922;-66
2022/05/17 05:54:42;;;;;;;;;;;;;;;;;;5013647;28;20534;-66
2022/05/17 05:57:10;;;;;;;;;;;;;;;;;;5014927;28;19926;-65
2022/05/17 05:59:38;;;;;;;;;;;;;;;;;;5013585;28;19921;-66
2022/05/17 06:02:04;;;;;;;;;;;;;;;;;;5014188;28;19921;-67
2022/05/17 06:04:31;;;;;;;;;;;;;;;;;;5013792;28;20291;-66
2022/05/17 06:09:31;;;;;;;;;;;;;;;;;;5030627;28;20400;-68
2022/05/17 06:11:58;;;;;;;;;;;;;;;;;;5050182;28;19927;-67
2022/05/17 06:14:27;;;;;;;;;;;;;;;;;;5042652;28;19921;-67
2022/05/17 06:16:53;;;;;;;;;;;;;;;;;;5033334;28;19921;-67
2022/05/17 06:19:22;;;;;;;;;;;;;;;;;;5032738;28;19921;-67
2022/05/17 06:21:49;;;;;;;;;;;;;;;;;;5041790;28;20011;-67
2022/05/17 06:24:16;;;;;;;;;;;;;;;;;;5053120;28;20459;-67
2022/05/17 06:26:43;;;;;;;;;;;;;;;;;;5037078;28;19927;-67
2022/05/17 06:29:10;;;;;;;;;;;;;;;;;;5032518;28;19921;-66
2022/05/17 06:31:38;;;;;;;;;;;;;;;;;;5031429;28;19928;-66
2022/05/17 06:34:05;;;;;;;;;;;;;;;;;;5033469;28;19967;-67
2022/05/17 06:36:32;;;;;;;;;;;;;;;;;;5032818;28;19921;-66
2022/05/17 06:38:59;;;;;;;;;;;;;;;;;;5033842;28;19931;-66
2022/05/17 06:41:25;;;;;;;;;;;;;;;;;;5032568;28;19927;-69
2022/05/17 06:43:53;;;;;;;;;;;;;;;;;;5033702;28;20378;-67
2022/05/17 06:46:20;;;;;;;;;;;;;;;;;;5028199;28;19928;-66
2022/05/17 06:48:48;;;;;;;;;;;;;;;;;;5026380;28;19921;-65
2022/05/17 06:51:14;;;;;;;;;;;;;;;;;;5032355;28;19928;-66
2022/05/17 06:53:42;;;;;;;;;;;;;;;;;;5044218;28;20007;-66
2022/05/17 06:56:09;;;;;;;;;;;;;;;;;;5052635;28;19928;-65
2022/05/17 06:58:36;;;;;;;;;;;;;;;;;;5048475;28;19921;-66
2022/05/17 07:01:02;;;;;;;;;;;;;;;;;;5032512;28;20306;-65
2022/05/17 07:03:29;;;;;;;;;;;;;;;;;;5023679;28;19924;-65
2022/05/17 07:05:57;;;;;;;;;;;;;;;;;;5052389;28;19921;-67
2022/05/17 07:08:23;;;;;;;;;;;;;;;;;;5028654;28;20188;-66
2022/05/17 07:13:35;;;;;;;;;;;;;;;;;;5030668;28;20019;-66
2022/05/17 07:16:01;;;;;;;;;;;;;;;;;;5030900;28;20271;-65
2022/05/17 07:18:29;;;;;;;;;;;;;;;;;;5036526;28;20333;-67
2022/05/17 07:20:58;;;;;;;;;;;;;;;;;;5031651;28;20278;-65
2022/05/17 07:23:25;;;;;;;;;;;;;;;;;;5030882;28;20003;-66
2022/05/17 07:25:53;;;;;;;;;;;;;;;;;;5031144;28;19927;-65
2022/05/17 07:28:22;;;;;;;;;;;;;;;;;;5030656;28;20404;-65
2022/05/17 07:30:49;;;;;;;;;;;;;;;;;;5030383;28;19927;-67
2022/05/17 07:33:17;;;;;;;;;;;;;;;;;;5030437;28;20393;-67
2022/05/17 07:35:44;;;;;;;;;;;;;;;;;;5030785;28;19946;-67
2022/05/17 07:38:13;;;;;;;;;;;;;;;;;;5030898;28;19921;-67
2022/05/17 07:40:41;;;;;;;;;;;;;;;;;;5030589;28;20000;-67
2022/05/17 07:43:08;;;;;;;;;;;;;;;;;;5030010;28;19993;-64
2022/05/17 07:45:36;;;;;;;;;;;;;;;;;;5031152;28;20398;-64
2022/05/17 07:48:04;;;;;;;;;;;;;;;;;;5033812;28;20606;-65
2022/05/17 07:50:33;;;;;;;;;;;;;;;;;;5034586;28;19921;-65
2022/05/17 07:53:06;;;;;;;;;;;;;;;;;;5034819;28;19996;-64
2022/05/17 07:55:34;;;;;;;;;;;;;;;;;;5034363;28;20011;-66
2022/05/17 07:58:00;;;;;;;;;;;;;;;;;;5033520;28;20349;-67
2022/05/17 08:00:27;;;;;;;;;;;;;;;;;;5033114;28;19949;-65
2022/05/17 08:02:56;;;;;;;;;;;;;;;;;;5033168;28;19929;-66
2022/05/17 08:05:23;;;;;;;;;;;;;;;;;;5035687;28;19921;-66
2022/05/17 08:07:49;;;;;;;;;;;;;;;;;;5037037;28;20342;-63
2022/05/17 08:10:16;;;;;;;;;;;;;;;;;;5033916;28;20116;-67
2022/05/17 08:12:44;;;;;;;;;;;;;;;;;;5034229;28;19921;-66
2022/05/17 08:15:11;;;;;;;;;;;;;;;;;;5032801;28;19928;-66
2022/05/17 08:17:38;;;;;;;;;;;;;;;;;;5033468;28;20007;-64
2022/05/17 08:20:09;;;;;;;;;;;;;;;;;;5041861;28;19940;-63
2022/05/17 08:22:37;;;;;;;;;;;;;;;;;;5033772;28;19975;-64
2022/05/17 08:27:50;;;;;;;;;;;;;;;;;;5033220;28;19956;-65
2022/05/17 08:30:19;;;;;;;;;;;;;;;;;;5033050;28;19928;-65
2022/05/17 08:35:30;;;;;;;;;;;;;;;;;;5032799;28;19927;-66
2022/05/17 08:37:57;;;;;;;;;;;;;;;;;;5033103;28;19929;-68
2022/05/17 08:40:24;;;;;;;;;;;;;;;;;;5032557;28;19921;-66
2022/05/17 08:42:56;;;;;;;;;;;;;;;;;;5032495;28;19928;-66
2022/05/17 08:45:31;;;;;;;;;;;;;;;;;;5032564;28;19928;-64
2022/05/17 08:47:57;;;;;;;;;;;;;;;;;;5031709;28;19928;-64
2022/05/17 08:50:26;;;;;;;;;;;;;;;;;;5032538;28;20348;-65
2022/05/17 08:52:54;;;;;;;;;;;;;;;;;;5032744;28;19951;-65
2022/05/17 08:55:24;;;;;;;;;;;;;;;;;;5032716;28;19921;-64
2022/05/17 08:57:54;;;;;;;;;;;;;;;;;;5032081;28;19928;-64
2022/05/17 09:00:23;;;;;;;;;;;;;;;;;;5033000;28;20321;-65
2022/05/17 09:02:50;;;;;;;;;;;;;;;;;;5033106;28;19928;-65
2022/05/17 09:05:26;;;;;;;;;;;;;;;;;;5032835;28;19921;-65
2022/05/17 09:07:55;;;;;;;;;;;;;;;;;;5032988;28;19921;-64
2022/05/17 09:10:27;;;;;;;;;;;;;;;;;;5032946;28;19921;-64
2022/05/17 09:12:58;;;;;;;;;;;;;;;;;;5032752;28;19928;-64
2022/05/17 09:15:27;;;;;;;;;;;;;;;;;;5033128;28;19921;-64
2022/05/17 09:17:53;;;;;;;;;;;;;;;;;;5032226;28;20024;-64
2022/05/17 09:20:21;;;;;;;;;;;;;;;;;;5032923;28;19921;-64
2022/05/17 09:22:48;;;;;;;;;;;;;;;;;;5032853;28;20416;-65
2022/05/17 09:25:16;;;;;;;;;;;;;;;;;;5032044;28;19921;-64
2022/05/17 09:27:46;;;;;;;;;;;;;;;;;;5032133;28;19968;-64
2022/05/17 09:30:14;;;;;;;;;;;;;;;;;;5031701;28;20290;-64
2022/05/17 09:32:44;;;;;;;;;;;;;;;;;;5032881;28;19968;-64
2022/05/17 09:35:13;;;;;;;;;;;;;;;;;;5031541;28;20435;-64
2022/05/17 09:37:42;;;;;;;;;;;;;;;;;;5032348;28;19931;-64
2022/05/17 09:40:10;;;;;;;;;;;;;;;;;;5032256;28;20349;-64
2022/05/17 09:42:44;;;;;;;;;;;;;;;;;;5031442;28;20355;-64
2022/05/17 09:45:14;;;;;;;;;;;;;;;;;;5035572;28;19921;-65
2022/05/17 09:47:44;;;;;;;;;;;;;;;;;;5036538;28;19928;-65
2022/05/17 09:53:10;;;;;;;;;;;;;;;;;;5006045;28;19937;-64
2022/05/17 09:55:37;;;;;;;;;;;;;;;;;;5022602;28;19921;-65
2022/05/17 09:58:06;;;;;;;;;;;;;;;;;;5032279;28;19921;-64
2022/05/17 10:00:40;;;;;;;;;;;;;;;;;;5031966;28;19920;-64
2022/05/17 10:03:25;;;;;;;;;;;;;;;;;;5031550;28;19924;-65
2022/05/17 10:05:57;;;;;;;;;;;;;;;;;;5031069;28;19928;-65
2022/05/17 10:08:29;;;;;;;;;;;;;;;;;;5031101;28;19921;-64
2022/05/17 10:11:02;;;;;;;;;;;;;;;;;;5030753;28;19952;-64
2022/05/17 10:13:31;;;;;;;;;;;;;;;;;;5031476;28;19921;-62
2022/05/17 10:16:01;;;;;;;;;;;;;;;;;;5030661;28;19925;-64
2022/05/17 10:18:36;;;;;;;;;;;;;;;;;;5029558;28;19936;-64
2022/05/17 10:21:06;;;;;;;;;;;;;;;;;;5029664;28;20382;-65
2022/05/17 10:23:37;;;;;;;;;;;;;;;;;;5031714;28;19991;-64
2022/05/17 10:26:08;;;;;;;;;;;;;;;;;;5031385;28;20311;-65
2022/05/17 10:28:38;;;;;;;;;;;;;;;;;;5031161;28;19944;-65
2022/05/17 10:31:11;;;;;;;;;;;;;;;;;;5031073;28;19974;-65
2022/05/17 10:33:42;;;;;;;;;;;;;;;;;;5031903;28;19928;-65
2022/05/17 10:36:15;;;;;;;;;;;;;;;;;;5030555;28;19921;-65
2022/05/17 10:38:47;;;;;;;;;;;;;;;;;;5030687;28;19928;-64
2022/05/17 10:41:13;;;;;;;;;;;;;;;;;;5031094;28;20393;-65
2022/05/17 10:43:41;;;;;;;;;;;;;;;;;;5028401;28;19925;-64
2022/05/17 10:46:11;;;;;;;;;;;;;;;;;;5031426;28;19927;-70
2022/05/17 10:48:46;;;;;;;;;;;;;;;;;;5031070;28;20373;-63
2022/05/17 10:51:16;;;;;;;;;;;;;;;;;;5030665;28;19921;-64
2022/05/17 10:53:51;;;;;;;;;;;;;;;;;;5030532;28;19921;-64
2022/05/17 10:56:23;;;;;;;;;;;;;;;;;;5029182;28;19936;-65
2022/05/17 10:58:53;;;;;;;;;;;;;;;;;;5029020;28;19995;-65
2022/05/17 11:01:23;;;;;;;;;;;;;;;;;;5030823;28;19928;-71
2022/05/17 11:04:04;;;;;;;;;;;;;;;;;;5029891;28;19929;-64
2022/05/17 11:06:36;;;;;;;;;;;;;;;;;;5029953;28;19964;-63
2022/05/17 11:09:08;;;;;;;;;;;;;;;;;;5030180;28;19921;-64
2022/05/17 11:11:44;;;;;;;;;;;;;;;;;;5030493;28;19967;-64
2022/05/17 11:14:13;;;;;;;;;;;;;;;;;;5029908;28;19932;-64
2022/05/17 11:16:43;;;;;;;;;;;;;;;;;;5030280;28;19925;-65
2022/05/17 11:19:17;;;;;;;;;;;;;;;;;;5029916;28;19925;-66
2022/05/17 11:21:49;;;;;;;;;;;;;;;;;;5031440;28;19921;-65
2022/05/17 11:24:20;;;;;;;;;;;;;;;;;;5034512;28;20362;-65
2022/05/17 11:27:08;;;;;;;;;;;;;;;;;;5033411;28;19925;-66
2022/05/17 11:29:47;;;;;;;;;;;;;;;;;;5032197;28;20393;-64
2022/05/17 11:32:22;;;;;;;;;;;;;;;;;;5031699;28;19921;-64
2022/05/17 11:34:49;;;;;;;;;;;;;;;;;;5034411;28;19921;-64
2022/05/17 11:37:30;;;;;;;;;;;;;;;;;;5033078;28;19936;-65
2022/05/17 11:39:59;;;;;;;;;;;;;;;;;;5033719;28;19929;-66
2022/05/17 11:42:27;;;;;;;;;;;;;;;;;;5034641;28;20345;-64
2022/05/17 11:44:54;;;;;;;;;;;;;;;;;;5033411;28;19928;-65
2022/05/17 11:47:29;;;;;;;;;;;;;;;;;;5034099;28;20032;-66
2022/05/17 11:50:20;;;;;;;;;;;;;;;;;;5033377;28;19928;-64
2022/05/17 11:52:47;;;;;;;;;;;;;;;;;;5034748;28;19927;-64
2022/05/17 11:55:17;;;;;;;;;;;;;;;;;;5033818;28;20270;-65
2022/05/17 11:58:03;;;;;;;;;;;;;;;;;;5034179;28;20016;-64
2022/05/17 12:00:51;;;;;;;;;;;;;;;;;;5034169;28;19925;-64
2022/05/17 12:03:36;;;;;;;;;;;;;;;;;;5033908;28;19975;-65
2022/05/17 12:06:02;;;;;;;;;;;;;;;;;;5014037;28;20267;-63
2022/05/17 12:08:30;;;;;;;;;;;;;;;;;;5043262;22;19925;-81
2022/05/17 12:11:02;;;;;;;;;;;;;;;;;;5031757;28;19920;-80
2022/05/17 12:13:29;;;;;;;;;;;;;;;;;;5028475;28;19925;-80
2022/05/17 12:15:56;;;;;;;;;;;;;;;;;;5017708;28;19921;-79
2022/05/17 12:18:34;;;;;;;;;;;;;;;;;;5016067;28;19953;-79
2022/05/17 12:21:13;;;;;;;;;;;;;;;;;;5020225;28;19905;-79
2022/05/17 12:23:45;;;;;;;;;;;;;;;;;;5018277;28;19921;-77
2022/05/17 12:26:16;;;;;;;;;;;;;;;;;;5016001;28;20431;-80
2022/05/17 12:28:46;;;;;;;;;;;;;;;;;;5016360;28;20657;-80
2022/05/17 12:31:16;;;;;;;;;;;;;;;;;;5015681;28;19921;-78
2022/05/17 12:33:44;;;;;;;;;;;;;;;;;;5014535;28;19921;-78
2022/05/17 12:36:12;;;;;;;;;;;;;;;;;;5015403;28;19968;-77
2022/05/17 12:44:26;;;;;;;;;;;;;;;;;;4972276;28;19929;-77
2022/05/17 12:46:55;;;;;;;;;;;;;;;;;;4996186;28;19960;-79
2022/05/17 12:49:23;;;;;;;;;;;;;;;;;;5014582;28;20052;-80
2022/05/17 12:51:51;;;;;;;;;;;;;;;;;;5017192;28;19921;-80
2022/05/17 12:54:21;;;;;;;;;;;;;;;;;;5012704;28;20347;-79
2022/05/17 12:56:49;;;;;;;;;;;;;;;;;;5015404;28;19926;-78
2022/05/17 12:59:24;;;;;;;;;;;;;;;;;;5014649;28;19922;-79
2022/05/17 13:01:52;;;;;;;;;;;;;;;;;;5014648;28;19928;-79
2022/05/17 13:04:25;;;;;;;;;;;;;;;;;;5015499;28;19928;-80
2022/05/17 13:06:52;;;;;;;;;;;;;;;;;;5016115;28;19976;-80
2022/05/17 13:09:20;;;;;;;;;;;;;;;;;;5013526;28;19987;-79
2022/05/17 13:11:47;;;;;;;;;;;;;;;;;;5030681;28;20175;-79
2022/05/17 13:14:22;;;;;;;;;;;;;;;;;;5027139;28;19921;-79
2022/05/17 13:16:49;;;;;;;;;;;;;;;;;;5021585;28;19931;-81
2022/05/17 13:19:18;;;;;;;;;;;;;;;;;;5038678;28;20359;-80
2022/05/17 13:21:48;;;;;;;;;;;;;;;;;;5028576;28;20443;-80
2022/05/17 13:24:23;;;;;;;;;;;;;;;;;;5016553;28;20376;-79
2022/05/17 13:26:52;;;;;;;;;;;;;;;;;;5014912;28;19926;-79
2022/05/17 13:29:24;;;;;;;;;;;;;;;;;;5016417;28;19948;-81
2022/05/17 13:31:53;;;;;;;;;;;;;;;;;;5016809;28;19921;-79
2022/05/17 13:34:20;;;;;;;;;;;;;;;;;;5021843;28;19929;-79
2022/05/17 13:36:46;;;;;;;;;;;;;;;;;;5015759;28;19922;-79
2022/05/17 13:39:20;;;;;;;;;;;;;;;;;;5016784;28;19925;-80
2022/05/17 13:41:47;;;;;;;;;;;;;;;;;;5023814;28;19982;-79
2022/05/17 13:44:27;;;;;;;;;;;;;;;;;;5017777;28;19964;-80
2022/05/17 13:46:54;;;;;;;;;;;;;;;;;;5015946;28;20128;-79
2022/05/17 13:49:22;;;;;;;;;;;;;;;;;;5015943;28;20312;-79
2022/05/17 13:51:51;;;;;;;;;;;;;;;;;;5015604;28;19971;-79
2022/05/17 13:54:25;;;;;;;;;;;;;;;;;;5014809;28;19922;-79
2022/05/17 13:56:54;;;;;;;;;;;;;;;;;;5019428;28;19922;-80
2022/05/17 13:59:20;;;;;;;;;;;;;;;;;;5019157;28;20372;-79
2022/05/17 14:01:53;;;;;;;;;;;;;;;;;;5018903;28;19921;-80
2022/05/17 14:04:24;;;;;;;;;;;;;;;;;;5005342;28;19921;-80
2022/05/17 14:06:53;;;;;;;;;;;;;;;;;;4997523;28;20012;-79
2022/05/17 14:12:08;;;;;;;;;;;;;;;;;;5016251;28;19928;-79
2022/05/17 14:14:35;;;;;;;;;;;;;;;;;;5015069;28;19926;-80
2022/05/17 14:17:04;;;;;;;;;;;;;;;;;;5015446;28;19979;-79
2022/05/17 14:19:32;;;;;;;;;;;;;;;;;;5014410;28;20008;-79
2022/05/17 14:22:00;;;;;;;;;;;;;;;;;;5014182;28;19925;-79
2022/05/17 14:24:27;;;;;;;;;;;;;;;;;;5013680;28;19925;-79
2022/05/17 14:26:55;;;;;;;;;;;;;;;;;;5013612;28;19921;-79
2022/05/17 14:29:22;;;;;;;;;;;;;;;;;;5011458;28;20009;-79
2022/05/17 14:31:49;;;;;;;;;;;;;;;;;;5014496;28;19928;-79
2022/05/17 14:34:19;;;;;;;;;;;;;;;;;;5014253;28;20395;-79
2022/05/17 14:36:46;;;;;;;;;;;;;;;;;;5014658;28;19922;-80
2022/05/17 14:39:13;;;;;;;;;;;;;;;;;;5014807;28;19964;-79
2022/05/17 14:41:40;;;;;;;;;;;;;;;;;;5013755;28;19927;-79
2022/05/17 14:44:07;;;;;;;;;;;;;;;;;;5013542;28;19945;-82
2022/05/17 14:46:37;;;;;;;;;;;;;;;;;;5014517;28;19921;-78
2022/05/17 14:49:04;;;;;;;;;;;;;;;;;;4997739;28;19926;-80
2022/05/17 14:51:33;;;;;;;;;;;;;;;;;;4996578;28;19922;-80
2022/05/17 14:54:00;;;;;;;;;;;;;;;;;;4995059;28;19925;-81
2022/05/17 14:56:27;;;;;;;;;;;;;;;;;;4995422;28;19928;-82
2022/05/17 14:58:53;;;;;;;;;;;;;;;;;;5006047;28;19921;-80
2022/05/17 15:01:22;;;;;;;;;;;;;;;;;;5012302;28;19976;-83
2022/05/17 15:03:50;;;;;;;;;;;;;;;;;;5005862;28;20373;-79
2022/05/17 15:06:17;;;;;;;;;;;;;;;;;;5007822;28;20392;-80
2022/05/17 15:08:45;;;;;;;;;;;;;;;;;;5016127;28;19937;-81
2022/05/17 15:11:12;;;;;;;;;;;;;;;;;;5015855;28;19967;-81
2022/05/17 15:13:40;;;;;;;;;;;;;;;;;;5016312;28;20022;-81
2022/05/17 15:16:08;;;;;;;;;;;;;;;;;;5015312;28;19959;-79
2022/05/17 15:18:37;;;;;;;;;;;;;;;;;;5017479;28;19922;-79
2022/05/17 15:21:04;;;;;;;;;;;;;;;;;;5017288;28;19925;-80
2022/05/17 15:23:32;;;;;;;;;;;;;;;;;;5015803;28;19928;-80
2022/05/17 15:26:00;;;;;;;;;;;;;;;;;;5015387;28;19921;-79
2022/05/17 15:28:27;;;;;;;;;;;;;;;;;;5015565;28;19937;-80
2022/05/17 15:30:54;;;;;;;;;;;;;;;;;;5015490;28;19933;-82
2022/05/17 15:33:22;;;;;;;;;;;;;;;;;;5015784;28;19921;-80
2022/05/17 15:35:49;;;;;;;;;;;;;;;;;;5016687;28;19975;-79
2022/05/17 15:38:20;;;;;;;;;;;;;;;;;;5016591;28;19928;-81
2022/05/17 15:40:46;;;;;;;;;;;;;;;;;;5016537;28;20350;-82
2022/05/17 15:43:14;;;;;;;;;;;;;;;;;;5017264;28;19921;-80
2022/05/17 15:45:41;;;;;;;;;;;;;;;;;;5015582;28;20028;-82
2022/05/17 15:53:38;;;;;;;;;;;;;;;;;;5037199;28;20026;-80
2022/05/17 15:56:08;;;;;;;;;;;;;;;;;;5011035;28;19968;-80
2022/05/17 15:58:37;;;;;;;;;;;;;;;;;;5017099;28;19921;-80
2022/05/17 16:01:05;;;;;;;;;;;;;;;;;;5016893;28;19971;-80
2022/05/17 16:03:33;;;;;;;;;;;;;;;;;;5016143;28;19949;-78
2022/05/17 16:05:59;;;;;;;;;;;;;;;;;;5014695;28;19922;-81
2022/05/17 16:08:26;;;;;;;;;;;;;;;;;;5017409;28;19926;-80
2022/05/17 16:10:54;;;;;;;;;;;;;;;;;;5017465;28;20296;-79
2022/05/17 16:13:21;;;;;;;;;;;;;;;;;;5016476;28;19929;-79
2022/05/17 16:15:51;;;;;;;;;;;;;;;;;;5021222;28;19921;-78
2022/05/17 16:18:19;;;;;;;;;;;;;;;;;;5019913;28;19967;-80
2022/05/17 16:20:46;;;;;;;;;;;;;;;;;;5020763;28;19921;-81
2022/05/17 16:23:13;;;;;;;;;;;;;;;;;;5019846;28;19922;-81
2022/05/17 16:25:41;;;;;;;;;;;;;;;;;;5019617;28;19974;-80
2022/05/17 16:28:08;;;;;;;;;;;;;;;;;;5017259;28;19922;-80
2022/05/17 16:30:37;;;;;;;;;;;;;;;;;;5021219;28;19976;-80
2022/05/17 16:33:05;;;;;;;;;;;;;;;;;;5022694;28;19988;-82
2022/05/17 16:35:34;;;;;;;;;;;;;;;;;;5031152;28;19932;-79
2022/05/17 16:38:01;;;;;;;;;;;;;;;;;;5032713;28;19931;-78
2022/05/17 16:40:28;;;;;;;;;;;;;;;;;;5030566;28;19917;-80
2022/05/17 16:42:55;;;;;;;;;;;;;;;;;;5026199;28;19921;-81
2022/05/17 16:45:22;;;;;;;;;;;;;;;;;;5020343;28;19936;-80
2022/05/17 16:47:49;;;;;;;;;;;;;;;;;;5019974;28;19928;-80
2022/05/17 16:50:25;;;;;;;;;;;;;;;;;;5019554;28;19922;-80
2022/05/17 16:52:51;;;;;;;;;;;;;;;;;;5018863;28;19940;-80
2022/05/17 16:55:18;;;;;;;;;;;;;;;;;;5020610;28;19921;-78
2022/05/17 16:57:45;;;;;;;;;;;;;;;;;;5018240;28;19949;-80
2022/05/17 17:00:12;;;;;;;;;;;;;;;;;;5019835;28;20327;-81
2022/05/17 17:02:39;;;;;;;;;;;;;;;;;;5018709;28;19948;-81
2022/05/17 17:05:07;;;;;;;;;;;;;;;;;;5017393;28;19969;-82
2022/05/17 17:07:36;;;;;;;;;;;;;;;;;;5019751;28;19972;-82
2022/05/17 17:10:04;;;;;;;;;;;;;;;;;;5019259;28;19936;-81
2022/05/17 17:12:30;;;;;;;;;;;;;;;;;;5019390;28;19944;-82
2022/05/17 17:14:57;;;;;;;;;;;;;;;;;;5019392;28;20326;-83
2022/05/17 17:17:23;;;;;;;;;;;;;;;;;;5020552;28;20363;-80
2022/05/17 17:19:50;;;;;;;;;;;;;;;;;;5020449;28;19929;-81
2022/05/17 17:22:16;;;;;;;;;;;;;;;;;;5021104;28;19921;-81